Time;durP1;ratioP1;P1;durP2;ratioP2;P2;SDS_P1;SDS_P2;PMS_P1;PMS_P2;Temp;Humidity;BMP_temperature;BMP_pressure;BME280_temperature;BME280_humidity;BME280_pressure;Samples;Min_cycle;Max_cycle;Signal;HPM_P1;HPM_P2
2022/07/12 00:01:48;;;;;;;2.47;2.08;;;16.10;99.90;;;;;;5024968;28;20075;-44
2022/07/12 00:04:15;;;;;;;2.35;2.15;;;16.10;99.90;;;;;;5024595;28;20412;-43
2022/07/12 00:06:43;;;;;;;3.83;2.08;;;16.00;99.90;;;;;;5026805;28;20445;-43
2022/07/12 00:09:10;;;;;;;4.43;2.25;;;16.00;99.90;;;;;;5027263;28;20091;-44
2022/07/12 00:11:37;;;;;;;2.63;1.80;;;16.00;99.90;;;;;;5028872;28;20482;-44
2022/07/12 00:14:03;;;;;;;3.10;1.77;;;15.90;99.90;;;;;;5024188;28;20534;-43
2022/07/12 00:16:30;;;;;;;1.75;1.65;;;15.90;99.90;;;;;;5026885;28;20123;-42
2022/07/12 00:18:57;;;;;;;3.05;2.00;;;15.90;99.90;;;;;;5027405;28;20133;-43
2022/07/12 00:21:24;;;;;;;3.03;1.88;;;15.90;99.90;;;;;;5027090;28;20053;-43
2022/07/12 00:23:52;;;;;;;1.95;1.73;;;15.90;99.90;;;;;;5023365;28;20049;-43
2022/07/12 00:26:19;;;;;;;1.85;1.63;;;15.80;99.90;;;;;;5027957;28;20038;-42
2022/07/12 00:28:46;;;;;;;4.57;2.00;;;15.80;99.90;;;;;;5028102;28;20128;-43
2022/07/12 00:31:13;;;;;;;2.20;1.77;;;15.80;99.90;;;;;;5026138;28;20045;-43
2022/07/12 00:33:39;;;;;;;2.90;1.75;;;15.70;99.90;;;;;;5026309;28;20128;-43
2022/07/12 00:36:07;;;;;;;1.70;1.60;;;15.70;99.90;;;;;;5023358;28;20087;-43
2022/07/12 00:38:34;;;;;;;2.03;1.90;;;15.70;99.90;;;;;;5024855;28;20053;-44
2022/07/12 00:41:02;;;;;;;2.20;2.00;;;15.60;99.90;;;;;;5026751;28;20099;-43
2022/07/12 00:43:28;;;;;;;1.95;1.70;;;15.60;99.90;;;;;;5026706;28;20052;-44
2022/07/12 00:45:55;;;;;;;1.95;1.75;;;15.60;99.90;;;;;;5027919;28;20041;-43
2022/07/12 00:48:22;;;;;;;2.08;1.92;;;15.50;99.90;;;;;;5025328;28;20116;-43
2022/07/12 00:50:49;;;;;;;1.88;1.75;;;15.50;99.90;;;;;;5025142;28;20051;-43
2022/07/12 00:53:18;;;;;;;2.75;1.40;;;15.50;99.90;;;;;;5028793;28;20547;-44
2022/07/12 00:55:45;;;;;;;1.98;1.70;;;15.50;99.90;;;;;;5030970;28;20095;-43
2022/07/12 00:58:13;;;;;;;2.25;1.60;;;15.50;99.90;;;;;;5024333;28;20126;-43
2022/07/12 01:00:39;;;;;;;1.70;1.60;;;15.40;99.90;;;;;;5025584;28;20087;-42
2022/07/12 01:03:06;;;;;;;2.22;2.00;;;15.40;99.90;;;;;;5026124;28;20047;-42
2022/07/12 01:05:33;;;;;;;1.48;1.38;;;15.40;99.90;;;;;;5028216;28;20124;-43
2022/07/12 01:08:00;;;;;;;1.80;1.70;;;15.30;99.90;;;;;;5026675;28;20132;-44
2022/07/12 01:10:26;;;;;;;2.17;1.52;;;15.30;99.90;;;;;;5026413;28;20148;-43
2022/07/12 01:12:53;;;;;;;1.70;1.40;;;15.30;99.90;;;;;;5027072;28;20393;-44
2022/07/12 01:15:21;;;;;;;1.83;1.50;;;15.20;99.90;;;;;;5027590;28;20053;-43
2022/07/12 01:17:48;;;;;;;1.70;1.15;;;15.20;99.90;;;;;;5027873;28;20120;-43
2022/07/12 01:20:15;;;;;;;1.80;1.70;;;15.20;99.90;;;;;;5030385;28;20053;-44
2022/07/12 01:22:42;;;;;;;1.60;1.50;;;15.10;99.90;;;;;;5033650;28;20462;-44
2022/07/12 01:25:10;;;;;;;1.80;1.48;;;15.10;99.90;;;;;;5031445;28;20582;-44
2022/07/12 01:27:38;;;;;;;1.85;1.70;;;15.10;99.90;;;;;;5029216;28;20124;-42
2022/07/12 01:30:06;;;;;;;1.60;1.35;;;15.10;99.90;;;;;;5029085;28;20120;-43
2022/07/12 01:32:33;;;;;;;1.40;1.30;;;15.00;99.90;;;;;;5029523;28;20129;-43
2022/07/12 01:35:00;;;;;;;2.72;1.60;;;15.00;99.90;;;;;;5030210;28;20065;-44
2022/07/12 01:37:29;;;;;;;2.13;1.92;;;14.90;99.90;;;;;;5029709;28;20481;-43
2022/07/12 01:39:57;;;;;;;1.60;1.42;;;14.90;99.90;;;;;;5029447;28;20041;-42
2022/07/12 01:42:27;;;;;;;4.22;1.30;;;14.80;99.90;;;;;;5031803;28;20067;-43
2022/07/12 01:44:54;;;;;;;1.67;1.58;;;14.80;99.90;;;;;;5027697;28;20152;-43
2022/07/12 01:47:21;;;;;;;2.88;1.40;;;14.80;99.90;;;;;;5029666;28;20452;-42
2022/07/12 01:49:48;;;;;;;2.42;1.40;;;14.70;99.90;;;;;;5030141;28;20079;-43
2022/07/12 01:52:14;;;;;;;1.50;1.40;;;14.70;99.90;;;;;;5027395;28;20493;-43
2022/07/12 01:54:41;;;;;;;1.50;1.40;;;14.70;99.90;;;;;;5030985;28;20053;-43
2022/07/12 01:57:08;;;;;;;1.60;1.50;;;14.60;99.90;;;;;;5026661;28;20505;-43
2022/07/12 01:59:36;;;;;;;1.70;1.10;;;14.60;99.90;;;;;;5031015;28;20050;-43
2022/07/12 02:02:04;;;;;;;1.52;1.05;;;14.50;99.90;;;;;;5025360;28;20045;-43
2022/07/12 02:04:30;;;;;;;1.50;1.10;;;14.50;99.90;;;;;;5030089;28;20084;-42
2022/07/12 02:06:57;;;;;;;1.30;1.20;;;14.50;99.90;;;;;;5031058;28;21331;-44
2022/07/12 02:09:24;;;;;;;1.25;1.15;;;14.50;99.90;;;;;;5029398;28;20073;-43
2022/07/12 02:11:51;;;;;;;5.90;1.17;;;14.50;99.90;;;;;;5030777;28;20045;-43
2022/07/12 02:14:18;;;;;;;2.58;1.50;;;14.40;99.90;;;;;;5029088;28;20049;-43
2022/07/12 02:16:46;;;;;;;2.80;1.65;;;14.40;99.90;;;;;;5030493;28;20128;-43
2022/07/12 02:19:13;;;;;;;1.63;1.38;;;14.40;99.90;;;;;;5031083;28;20045;-44
2022/07/12 02:21:40;;;;;;;4.00;1.60;;;14.40;99.90;;;;;;5029061;28;20051;-43
2022/07/12 02:24:07;;;;;;;1.80;1.63;;;14.40;99.90;;;;;;5028750;28;20518;-43
2022/07/12 02:26:34;;;;;;;4.65;1.60;;;14.40;99.90;;;;;;5033051;28;20079;-43
2022/07/12 02:29:01;;;;;;;2.60;1.50;;;14.30;99.90;;;;;;5033807;28;20052;-43
2022/07/12 02:31:27;;;;;;;1.73;1.63;;;14.40;99.90;;;;;;5033301;28;20441;-43
2022/07/12 02:33:55;;;;;;;4.10;1.90;;;14.30;99.90;;;;;;5033053;28;20053;-43
2022/07/12 02:36:22;;;;;;;2.50;1.60;;;14.30;99.90;;;;;;5031846;28;20132;-43
2022/07/12 02:38:49;;;;;;;1.92;1.58;;;14.30;99.90;;;;;;5029078;28;20124;-42
2022/07/12 02:41:16;;;;;;;2.03;1.58;;;14.20;99.90;;;;;;5028042;28;20897;-43
2022/07/12 02:43:43;;;;;;;2.72;1.40;;;14.20;99.90;;;;;;5030358;28;20144;-43
2022/07/12 02:46:10;;;;;;;2.08;1.70;;;14.20;99.90;;;;;;5027811;28;20140;-43
2022/07/12 02:48:37;;;;;;;1.90;1.23;;;14.20;99.90;;;;;;5029172;28;20366;-43
2022/07/12 02:51:06;;;;;;;1.58;1.48;;;14.20;99.90;;;;;;5029301;28;20427;-43
2022/07/12 02:53:33;;;;;;;1.98;1.35;;;14.20;99.90;;;;;;5028409;28;20132;-42
2022/07/12 02:56:00;;;;;;;1.30;1.20;;;14.20;99.90;;;;;;5030118;28;20060;-43
2022/07/12 02:58:26;;;;;;;1.30;1.15;;;14.10;99.90;;;;;;5029199;28;20147;-43
2022/07/12 03:00:53;;;;;;;3.10;1.40;;;14.10;99.90;;;;;;5027761;28;20127;-44
2022/07/12 03:03:20;;;;;;;1.60;1.50;;;14.10;99.90;;;;;;5029225;28;20060;-43
2022/07/12 03:05:47;;;;;;;1.60;1.38;;;14.00;99.90;;;;;;5029986;28;20037;-43
2022/07/12 03:08:15;;;;;;;1.60;1.50;;;14.00;99.90;;;;;;5026849;28;20120;-43
2022/07/12 03:10:42;;;;;;;2.85;1.52;;;14.00;99.90;;;;;;5028813;28;20132;-43
2022/07/12 03:13:09;;;;;;;2.42;1.60;;;14.00;99.90;;;;;;5029083;28;20140;-43
2022/07/12 03:15:36;;;;;;;1.60;1.50;;;14.00;99.90;;;;;;5027271;28;20081;-43
2022/07/12 03:18:03;;;;;;;1.50;1.40;;;14.00;99.90;;;;;;5026351;28;20128;-43
2022/07/12 03:20:30;;;;;;;1.65;1.30;;;13.90;99.90;;;;;;5030546;28;20473;-42
2022/07/12 03:22:56;;;;;;;2.90;1.50;;;13.90;99.90;;;;;;5030969;28;20120;-43
2022/07/12 03:25:25;;;;;;;1.95;1.58;;;13.90;99.90;;;;;;5027829;28;20453;-43
2022/07/12 03:27:51;;;;;;;1.23;1.13;;;13.90;99.90;;;;;;5024185;28;20384;-42
2022/07/12 03:30:18;;;;;;;2.00;1.60;;;13.80;99.90;;;;;;5027380;28;20394;-43
2022/07/12 03:32:45;;;;;;;1.60;1.50;;;13.80;99.90;;;;;;5024938;28;20758;-42
2022/07/12 03:35:12;;;;;;;5.35;1.52;;;13.90;99.90;;;;;;5029192;28;20051;-42
2022/07/12 03:37:43;;;;;;;4.43;1.60;;;13.80;99.90;;;;;;5026732;28;20428;-42
2022/07/12 03:40:10;;;;;;;1.67;1.50;;;13.80;99.90;;;;;;5027724;28;20088;-42
2022/07/12 03:42:39;;;;;;;1.58;1.45;;;13.80;99.90;;;;;;5027610;28;20083;-42
2022/07/12 03:45:06;;;;;;;4.72;1.90;;;13.80;99.90;;;;;;5027380;28;20132;-42
2022/07/12 03:47:34;;;;;;;3.63;1.60;;;13.80;99.90;;;;;;5027006;28;20099;-42
2022/07/12 03:50:02;;;;;;;3.55;1.60;;;13.70;99.90;;;;;;5026295;28;20045;-43
2022/07/12 03:52:29;;;;;;;1.70;1.60;;;13.80;99.90;;;;;;5027269;28;20038;-43
2022/07/12 03:54:56;;;;;;;2.45;1.90;;;13.70;99.90;;;;;;5022419;28;20063;-42
2022/07/12 03:57:22;;;;;;;3.38;2.25;;;13.70;99.90;;;;;;5027676;28;20541;-43
2022/07/12 03:59:50;;;;;;;2.20;1.83;;;13.70;99.90;;;;;;5028452;28;20136;-42
2022/07/12 04:02:17;;;;;;;2.05;1.85;;;13.80;99.90;;;;;;5026804;28;20069;-42
2022/07/12 04:04:44;;;;;;;2.97;1.80;;;13.80;99.90;;;;;;5026911;28;20379;-43
2022/07/12 04:07:11;;;;;;;1.75;1.63;;;13.70;99.90;;;;;;5026742;28;20512;-42
2022/07/12 04:09:37;;;;;;;2.42;1.73;;;13.70;99.90;;;;;;5028248;28;20161;-42
2022/07/12 04:12:05;;;;;;;3.35;1.70;;;13.70;99.90;;;;;;5029014;28;20129;-42
2022/07/12 04:14:33;;;;;;;1.40;1.30;;;13.70;99.90;;;;;;5025049;28;20045;-43
2022/07/12 04:17:01;;;;;;;2.72;1.50;;;13.70;99.90;;;;;;5028342;28;20052;-43
2022/07/12 04:19:28;;;;;;;2.55;1.45;;;13.70;99.90;;;;;;5027827;28;20134;-43
2022/07/12 04:21:55;;;;;;;2.13;1.48;;;13.70;99.90;;;;;;5024690;28;20053;-43
2022/07/12 04:24:22;;;;;;;3.05;1.67;;;13.60;99.90;;;;;;5027121;28;20485;-42
2022/07/12 04:26:49;;;;;;;2.20;1.48;;;13.70;99.90;;;;;;5027575;28;20099;-42
2022/07/12 04:29:16;;;;;;;2.78;1.50;;;13.60;99.90;;;;;;5026100;28;20246;-43
2022/07/12 04:31:43;;;;;;;1.48;1.38;;;13.60;99.90;;;;;;5027179;28;20128;-44
2022/07/12 04:34:11;;;;;;;1.60;1.50;;;13.70;99.90;;;;;;5025255;28;20050;-43
2022/07/12 04:36:37;;;;;;;1.77;1.25;;;13.70;99.90;;;;;;5026546;28;20438;-44
2022/07/12 04:39:04;;;;;;;1.20;1.00;;;13.70;99.90;;;;;;5025543;28;20043;-43
2022/07/12 04:41:31;;;;;;;2.08;1.55;;;13.70;99.90;;;;;;5027680;28;20451;-44
2022/07/12 04:43:58;;;;;;;1.65;1.23;;;13.70;99.90;;;;;;5026891;28;20037;-44
2022/07/12 04:46:24;;;;;;;2.40;1.50;;;13.70;99.90;;;;;;5027474;28;20132;-43
2022/07/12 04:48:51;;;;;;;2.47;1.70;;;13.70;99.90;;;;;;5026472;28;20144;-43
2022/07/12 04:51:19;;;;;;;1.65;1.55;;;13.80;99.90;;;;;;5025803;28;20565;-43
2022/07/12 04:53:46;;;;;;;2.92;2.00;;;13.80;99.90;;;;;;5027948;28;20478;-42
2022/07/12 04:56:12;;;;;;;2.58;2.13;;;13.80;99.90;;;;;;5026613;28;20041;-42
2022/07/12 04:58:39;;;;;;;3.65;2.90;;;13.80;99.90;;;;;;5027066;28;20065;-42
2022/07/12 05:01:07;;;;;;;2.60;2.33;;;13.90;99.90;;;;;;5026165;28;20049;-43
2022/07/12 05:03:34;;;;;;;2.60;2.15;;;13.80;99.90;;;;;;5027114;28;20067;-43
2022/07/12 05:06:00;;;;;;;2.88;2.33;;;13.90;99.90;;;;;;5026133;28;20057;-43
2022/07/12 05:08:28;;;;;;;2.90;2.60;;;13.90;99.90;;;;;;5027362;28;20128;-43
2022/07/12 05:10:55;;;;;;;2.33;1.77;;;14.00;99.90;;;;;;5024394;28;20409;-43
2022/07/12 05:13:22;;;;;;;4.82;3.40;;;14.00;99.90;;;;;;5027746;28;20436;-44
2022/07/12 05:15:49;;;;;;;3.58;3.13;;;14.10;99.90;;;;;;5025573;28;20177;-43
2022/07/12 05:18:16;;;;;;;4.03;3.40;;;14.10;99.90;;;;;;5028129;28;20167;-43
2022/07/12 05:20:42;;;;;;;4.78;3.55;;;14.20;99.90;;;;;;5022719;28;20079;-43
2022/07/12 05:23:09;;;;;;;4.78;3.35;;;14.30;99.90;;;;;;5027374;28;20128;-43
2022/07/12 05:25:37;;;;;;;3.20;2.90;;;14.40;99.90;;;;;;5026955;28;20048;-43
2022/07/12 05:28:04;;;;;;;4.32;3.33;;;14.50;99.90;;;;;;5025820;28;20144;-43
2022/07/12 05:30:31;;;;;;;3.92;3.33;;;14.60;99.90;;;;;;5025929;28;21314;-43
2022/07/12 05:32:58;;;;;;;5.03;3.88;;;14.70;99.90;;;;;;5055544;28;20124;-43
2022/07/12 05:35:25;;;;;;;7.47;6.18;;;14.80;99.90;;;;;;5024612;28;20116;-43
2022/07/12 05:37:51;;;;;;;5.20;4.32;;;15.00;99.90;;;;;;5025308;28;20486;-43
2022/07/12 05:40:19;;;;;;;6.22;4.68;;;15.20;99.90;;;;;;5025912;28;20076;-42
2022/07/12 05:42:47;;;;;;;4.47;4.03;;;15.40;99.90;;;;;;4990176;22;20060;-42
2022/07/12 05:45:14;;;;;;;4.82;4.32;;;15.50;99.90;;;;;;5019695;28;20136;-43
2022/07/12 05:47:41;;;;;;;5.53;4.00;;;15.70;99.90;;;;;;5021873;28;20846;-44
2022/07/12 05:50:08;;;;;;;5.07;4.38;;;15.90;99.90;;;;;;5025180;28;20577;-43
2022/07/12 05:55:19;;;;;;;7.28;4.25;;;16.30;99.90;;;;;;5023064;28;20049;-43
2022/07/12 05:57:47;;;;;;;4.35;3.95;;;16.40;99.90;;;;;;5027377;28;20073;-43
2022/07/12 06:00:15;;;;;;;5.72;3.85;;;16.50;99.90;;;;;;5026541;28;20133;-43
2022/07/12 06:02:42;;;;;;;5.13;3.78;;;16.70;99.90;;;;;;5023374;28;20046;-44
2022/07/12 06:05:09;;;;;;;4.13;3.72;;;16.70;99.90;;;;;;5026516;28;20128;-43
2022/07/12 06:07:35;;;;;;;4.32;3.92;;;16.70;99.90;;;;;;5025689;28;20049;-43
2022/07/12 06:10:02;;;;;;;5.30;3.70;;;16.80;99.90;;;;;;5028313;28;20053;-43
2022/07/12 06:12:29;;;;;;;5.13;3.80;;;16.90;99.90;;;;;;5030062;28;20141;-43
2022/07/12 06:14:57;;;;;;;5.22;4.10;;;17.00;99.90;;;;;;5026532;28;20145;-42
2022/07/12 06:17:24;;;;;;;6.05;4.18;;;17.10;99.90;;;;;;5029593;28;20103;-41
2022/07/12 06:19:51;;;;;;;4.90;4.32;;;17.10;99.90;;;;;;5028733;28;20132;-43
2022/07/12 06:22:17;;;;;;;5.75;4.47;;;17.20;99.90;;;;;;5028838;28;20049;-43
2022/07/12 06:24:44;;;;;;;5.10;4.55;;;17.30;99.90;;;;;;5026723;28;20711;-43
2022/07/12 06:27:11;;;;;;;6.80;4.75;;;17.30;99.90;;;;;;5025648;28;20438;-43
2022/07/12 06:29:38;;;;;;;6.30;5.70;;;17.40;99.90;;;;;;5022911;28;20536;-43
2022/07/12 06:32:07;;;;;;;5.80;5.15;;;17.40;99.90;;;;;;5030370;28;20556;-43
2022/07/12 06:34:37;;;;;;;7.88;5.20;;;17.50;99.90;;;;;;5029060;28;20582;-43
2022/07/12 06:37:05;;;;;;;5.95;5.35;;;17.50;99.90;;;;;;5026982;28;20060;-43
2022/07/12 06:39:32;;;;;;;6.95;5.80;;;17.60;99.90;;;;;;5024397;28;20084;-43
2022/07/12 06:41:58;;;;;;;6.28;5.30;;;17.60;99.90;;;;;;5049392;28;20052;-43
2022/07/12 06:44:25;;;;;;;8.30;5.32;;;17.70;99.90;;;;;;5024820;28;20140;-42
2022/07/12 06:46:52;;;;;;;6.13;5.30;;;17.70;99.90;;;;;;5028259;28;20049;-42
2022/07/12 06:49:20;;;;;;;6.88;5.20;;;17.80;99.90;;;;;;5027739;28;20144;-42
2022/07/12 06:51:47;;;;;;;5.88;5.28;;;17.90;99.90;;;;;;5027085;28;20081;-42
2022/07/12 06:54:13;;;;;;;5.72;5.10;;;18.00;99.90;;;;;;5029542;28;20058;-43
2022/07/12 06:56:41;;;;;;;6.43;5.25;;;18.10;99.90;;;;;;5025826;28;21817;-43
2022/07/12 06:59:10;;;;;;;6.32;5.10;;;18.20;99.90;;;;;;5026341;28;20061;-43
2022/07/12 07:01:37;;;;;;;6.53;5.45;;;18.30;99.90;;;;;;5029082;28;20049;-43
2022/07/12 07:04:04;;;;;;;6.75;4.88;;;18.40;99.90;;;;;;5029246;28;20104;-44
2022/07/12 07:06:32;;;;;;;8.25;4.32;;;18.50;99.90;;;;;;5027077;28;20128;-42
2022/07/12 07:08:59;;;;;;;7.05;4.57;;;18.50;99.90;;;;;;5027690;28;20408;-42
2022/07/12 07:11:26;;;;;;;5.85;4.38;;;18.70;99.90;;;;;;5027494;28;20045;-44
2022/07/12 07:13:53;;;;;;;6.82;5.05;;;18.90;99.90;;;;;;5026959;28;20048;-43
2022/07/12 07:16:22;;;;;;;6.20;4.32;;;19.00;99.90;;;;;;5025808;28;20052;-43
2022/07/12 07:18:48;;;;;;;6.45;4.72;;;19.20;99.90;;;;;;5027199;28;20126;-44
2022/07/12 07:21:15;;;;;;;7.85;4.70;;;19.40;99.90;;;;;;5027475;28;20095;-43
2022/07/12 07:23:43;;;;;;;5.22;4.35;;;19.60;99.90;;;;;;5059811;28;20049;-43
2022/07/12 07:26:10;;;;;;;5.05;3.85;;;19.70;99.90;;;;;;5031398;28;20140;-43
2022/07/12 07:30:52;;;;;;;6.95;4.50;;;19.90;99.90;;;;;;5026627;28;20150;-44
2022/07/12 07:31:23;;;;;;;4.72;4.05;;;20.20;99.90;;;;;;5026817;28;20053;-43
2022/07/12 07:33:50;;;;;;;7.40;4.13;;;20.40;99.90;;;;;;5025050;28;20104;-44
2022/07/12 07:36:16;;;;;;;4.20;3.80;;;20.60;99.90;;;;;;5026191;28;20137;-43
2022/07/12 07:38:44;;;;;;;8.07;3.83;;;20.70;99.90;;;;;;5027885;28;20411;-44
2022/07/12 07:41:11;;;;;;;6.25;3.05;;;20.90;99.90;;;;;;5030464;28;20125;-43
2022/07/12 07:43:38;;;;;;;5.53;3.25;;;21.00;99.90;;;;;;5031513;28;20401;-43
2022/07/12 07:46:05;;;;;;;4.70;3.15;;;21.10;99.90;;;;;;5026992;28;20092;-44
2022/07/12 07:48:31;;;;;;;6.63;3.20;;;21.20;99.90;;;;;;5029613;28;20081;-44
2022/07/12 07:50:58;;;;;;;6.97;4.25;;;21.40;99.90;;;;;;5056122;28;20068;-44
2022/07/12 07:53:25;;;;;;;3.50;3.00;;;21.50;99.90;;;;;;5022067;28;20164;-44
2022/07/12 07:55:53;;;;;;;4.57;3.20;;;21.70;99.90;;;;;;5021614;28;20057;-44
2022/07/12 07:58:21;;;;;;;4.00;3.10;;;21.90;99.90;;;;;;5025942;28;20071;-44
2022/07/12 08:00:50;;;;;;;4.10;3.00;;;22.00;99.90;;;;;;5029129;28;20042;-42
2022/07/12 08:03:16;;;;;;;3.33;2.80;;;22.10;99.90;;;;;;5030325;28;20385;-43
2022/07/12 08:05:43;;;;;;;3.47;3.00;;;22.30;99.90;;;;;;5030434;28;20064;-43
2022/07/12 08:08:10;;;;;;;4.03;3.30;;;22.50;99.90;;;;;;5028871;28;20136;-44
2022/07/12 08:10:36;;;;;;;4.30;2.70;;;22.60;99.90;;;;;;5027590;28;20144;-44
2022/07/12 08:13:04;;;;;;;3.78;2.88;;;22.80;99.90;;;;;;5030482;28;20128;-43
2022/07/12 08:15:31;;;;;;;4.22;3.22;;;23.00;99.90;;;;;;5030903;28;20401;-43
2022/07/12 08:17:58;;;;;;;5.13;2.85;;;23.10;99.60;;;;;;5026724;28;20041;-44
2022/07/12 08:20:25;;;;;;;4.95;2.90;;;23.30;99.60;;;;;;5027261;28;20128;-44
2022/07/12 08:22:51;;;;;;;2.67;2.47;;;23.50;99.00;;;;;;5026179;28;20569;-43
2022/07/12 08:25:18;;;;;;;5.03;3.20;;;23.60;98.70;;;;;;5026688;28;20128;-43
2022/07/12 08:27:45;;;;;;;5.15;2.70;;;23.60;98.20;;;;;;5029581;28;20140;-44
2022/07/12 08:30:14;;;;;;;3.53;3.05;;;23.70;98.00;;;;;;5026024;28;20123;-43
2022/07/12 08:32:44;;;;;;;2.42;1.98;;;23.70;98.00;;;;;;5027057;28;21437;-44
2022/07/12 08:35:11;;;;;;;3.00;2.55;;;23.70;97.80;;;;;;5027044;28;20055;-43
2022/07/12 08:37:38;;;;;;;4.72;2.53;;;23.80;97.80;;;;;;5025992;28;20140;-44
2022/07/12 08:40:06;;;;;;;2.55;2.35;;;23.90;97.50;;;;;;5025839;28;20071;-43
2022/07/12 08:42:33;;;;;;;3.58;2.28;;;24.00;97.10;;;;;;5024263;28;20490;-44
2022/07/12 08:44:59;;;;;;;2.53;2.15;;;24.20;96.70;;;;;;5023938;28;20128;-43
2022/07/12 08:47:27;;;;;;;6.07;2.95;;;24.30;96.20;;;;;;5005895;28;20401;-44
2022/07/12 08:50:17;;;;;;;3.63;2.28;;;24.40;95.70;;;;;;5023489;28;20140;-45
2022/07/12 08:52:45;;;;;;;3.20;2.35;;;24.50;95.20;;;;;;5024913;28;20521;-43
2022/07/12 08:55:23;;;;;;;3.72;2.40;;;24.50;95.50;;;;;;5030201;28;20057;-44
2022/07/12 08:57:51;;;;;;;5.25;2.20;;;24.60;95.20;;;;;;5049102;28;20132;-44
2022/07/12 09:00:18;;;;;;;4.07;2.30;;;24.60;95.40;;;;;;5029677;28;20139;-43
2022/07/12 09:02:49;;;;;;;3.33;2.00;;;24.70;95.40;;;;;;5028191;28;20081;-42
2022/07/12 09:05:16;;;;;;;3.70;2.38;;;24.80;95.20;;;;;;5024682;28;20057;-44
2022/07/12 09:07:44;;;;;;;4.03;2.55;;;24.90;94.50;;;;;;5015743;28;20057;-44
2022/07/12 09:10:11;;;;;;;6.78;2.28;;;24.90;94.60;;;;;;5029209;28;20405;-44
2022/07/12 09:12:38;;;;;;;4.82;2.25;;;25.00;94.40;;;;;;5028108;28;20050;-44
2022/07/12 09:15:16;;;;;;;2.50;2.10;;;25.10;94.30;;;;;;5027217;28;20401;-44
2022/07/12 09:17:57;;;;;;;4.50;2.83;;;25.30;93.70;;;;;;5022366;28;20053;-45
2022/07/12 09:20:25;;;;;;;2.50;2.30;;;25.40;93.30;;;;;;5029932;28;20060;-44
2022/07/12 09:22:53;;;;;;;3.88;2.17;;;25.50;93.50;;;;;;5014858;28;20046;-44
2022/07/12 09:25:20;;;;;;;2.75;1.98;;;25.60;93.60;;;;;;5025551;28;20049;-43
2022/07/12 09:27:52;;;;;;;2.13;1.88;;;25.80;93.10;;;;;;5025657;28;20088;-44
2022/07/12 09:30:19;;;;;;;2.42;1.80;;;26.00;93.00;;;;;;5026299;28;20057;-44
2022/07/12 09:38:27;;;;;;;3.80;1.92;;;26.20;92.60;;;;;;5011400;28;20474;-43
2022/07/12 09:40:55;;;;;;;3.85;1.98;;;26.30;92.50;;;;;;5027606;28;20136;-43
2022/07/12 09:43:21;;;;;;;3.97;2.30;;;26.50;92.00;;;;;;5028779;28;20572;-43
2022/07/12 09:45:48;;;;;;;3.08;2.05;;;26.60;91.60;;;;;;5030292;28;20053;-43
2022/07/12 09:48:17;;;;;;;4.68;2.35;;;26.70;91.20;;;;;;5030906;28;20124;-44
2022/07/12 09:50:47;;;;;;;2.33;2.13;;;26.70;90.70;;;;;;5031202;28;20049;-45
2022/07/12 09:53:15;;;;;;;3.80;2.30;;;26.70;90.70;;;;;;5025323;28;20164;-44
2022/07/12 09:55:42;;;;;;;2.33;2.00;;;26.80;90.80;;;;;;5029375;28;20456;-43
2022/07/12 09:58:08;;;;;;;3.00;2.42;;;26.80;90.60;;;;;;5030689;28;20593;-45
2022/07/12 10:00:36;;;;;;;4.15;2.65;;;26.90;90.30;;;;;;5030565;28;20141;-43
2022/07/12 10:03:03;;;;;;;2.65;1.98;;;27.00;89.20;;;;;;5031886;28;20053;-45
2022/07/12 10:05:31;;;;;;;4.68;2.20;;;27.00;88.70;;;;;;5032194;28;20511;-44
2022/07/12 10:07:57;;;;;;;3.00;1.65;;;27.10;88.60;;;;;;5031854;28;20132;-43
2022/07/12 10:10:24;;;;;;;2.25;1.70;;;27.10;87.70;;;;;;5030637;28;20081;-44
2022/07/12 10:12:51;;;;;;;3.80;2.05;;;27.00;87.90;;;;;;5027116;28;20068;-44
2022/07/12 10:15:20;;;;;;;3.15;2.20;;;27.10;87.90;;;;;;5033122;28;20063;-44
2022/07/12 10:17:53;;;;;;;2.60;2.40;;;27.30;87.40;;;;;;5031409;28;20083;-43
2022/07/12 10:20:22;;;;;;;2.10;1.70;;;27.40;86.40;;;;;;5031018;28;20053;-43
2022/07/12 10:22:50;;;;;;;1.48;1.17;;;27.40;86.90;;;;;;5029368;28;20141;-44
2022/07/12 10:25:30;;;;;;;1.83;1.17;;;27.50;87.40;;;;;;5029818;28;20084;-44
2022/07/12 10:27:58;;;;;;;2.38;1.52;;;27.60;88.10;;;;;;5032765;28;20058;-43
2022/07/12 10:30:25;;;;;;;1.67;1.40;;;27.80;87.00;;;;;;5026817;28;20245;-43
2022/07/12 10:32:53;;;;;;;1.70;1.45;;;28.00;86.00;;;;;;5031718;28;20096;-44
2022/07/12 10:35:21;;;;;;;1.30;1.20;;;28.00;85.00;;;;;;5031592;28;20103;-44
2022/07/12 10:38:17;;;;;;;2.10;1.88;;;28.10;85.10;;;;;;5033166;28;20093;-44
2022/07/12 10:40:44;;;;;;;7.15;2.00;;;28.20;84.90;;;;;;5031142;28;20465;-44
2022/07/12 10:46:19;;;;;;;3.15;1.15;;;28.10;84.80;;;;;;5065252;28;20056;-44
2022/07/12 10:48:46;;;;;;;1.58;0.95;;;28.30;83.80;;;;;;5025550;28;20050;-44
2022/07/12 10:51:14;;;;;;;2.22;1.20;;;28.40;84.10;;;;;;5027665;28;20047;-45
2022/07/12 10:53:44;;;;;;;2.35;0.90;;;28.60;83.30;;;;;;5029301;28;20135;-44
2022/07/12 10:56:15;;;;;;;3.40;1.10;;;28.60;82.20;;;;;;5032169;28;20104;-43
2022/07/12 10:58:43;;;;;;;0.85;0.60;;;28.70;82.50;;;;;;5029340;28;20052;-43
2022/07/12 11:01:11;;;;;;;4.95;1.23;;;28.70;82.20;;;;;;5029167;28;20128;-44
2022/07/12 11:03:42;;;;;;;3.42;1.15;;;28.70;80.50;;;;;;5022332;28;20046;-45
2022/07/12 11:06:10;;;;;;;2.78;1.05;;;28.70;80.70;;;;;;5032862;28;20050;-45
2022/07/12 11:08:55;;;;;;;3.95;0.90;;;28.60;81.30;;;;;;5032022;28;20144;-44
2022/07/12 11:11:22;;;;;;;1.85;0.70;;;28.70;82.10;;;;;;5030697;28;20136;-44
2022/07/12 11:13:49;;;;;;;1.50;0.73;;;28.70;82.60;;;;;;5028195;28;20049;-42
2022/07/12 11:16:16;;;;;;;1.13;0.70;;;28.90;80.70;;;;;;5031529;28;20041;-44
2022/07/12 11:18:43;;;;;;;1.70;0.93;;;29.00;80.20;;;;;;5028411;28;20103;-44
2022/07/12 11:21:09;;;;;;;3.90;0.80;;;29.10;79.70;;;;;;5030671;28;20089;-45
2022/07/12 11:23:36;;;;;;;1.65;1.00;;;29.20;77.80;;;;;;5014640;28;20085;-45
2022/07/12 11:26:05;;;;;;;4.30;1.00;;;29.20;76.60;;;;;;5031155;28;20136;-44
2022/07/12 11:28:32;;;;;;;1.40;0.68;;;29.10;76.30;;;;;;5031001;28;20045;-45
2022/07/12 11:31:05;;;;;;;0.57;0.50;;;29.20;76.80;;;;;;5028019;28;20487;-44
2022/07/12 11:33:33;;;;;;;1.73;1.05;;;29.40;76.20;;;;;;5030509;28;20137;-45
2022/07/12 11:36:01;;;;;;;4.90;0.60;;;29.40;77.00;;;;;;5027585;28;20042;-44
2022/07/12 11:38:27;;;;;;;2.75;0.82;;;29.40;77.00;;;;;;5020529;28;20073;-44
2022/07/12 11:40:56;;;;;;;1.35;0.70;;;29.40;76.90;;;;;;5019193;28;20140;-44
2022/07/12 11:43:25;;;;;;;1.15;0.80;;;29.50;76.80;;;;;;5027028;28;20136;-45
2022/07/12 11:45:52;;;;;;;1.35;0.55;;;29.50;75.40;;;;;;5018689;28;20097;-43
2022/07/12 11:48:18;;;;;;;1.40;0.60;;;29.60;75.30;;;;;;5031147;28;20481;-44
2022/07/12 11:50:45;;;;;;;2.30;0.60;;;29.70;75.00;;;;;;5030938;28;20107;-45
2022/07/12 11:53:16;;;;;;;1.77;0.70;;;29.80;74.00;;;;;;5022092;28;20466;-44
2022/07/12 11:55:43;;;;;;;1.20;0.60;;;29.90;73.00;;;;;;5023110;28;20065;-45
2022/07/12 11:58:10;;;;;;;1.20;0.70;;;30.00;73.40;;;;;;5022465;28;20045;-45
2022/07/12 12:00:39;;;;;;;1.83;0.63;;;30.10;72.90;;;;;;5020473;28;20061;-43
2022/07/12 12:03:06;;;;;;;2.45;0.63;;;30.20;69.80;;;;;;5022111;28;20060;-44
2022/07/12 12:05:33;;;;;;;1.48;0.60;;;30.20;69.20;;;;;;5025643;28;21322;-45
2022/07/12 12:07:59;;;;;;;0.52;0.50;;;30.30;67.60;;;;;;5021654;28;20557;-42
2022/07/12 12:10:26;;;;;;;2.80;0.55;;;30.40;67.90;;;;;;5021575;28;20059;-44
2022/07/12 12:12:54;;;;;;;1.33;0.60;;;30.50;68.50;;;;;;5023385;28;20148;-43
2022/07/12 12:15:21;;;;;;;2.90;0.73;;;30.60;68.90;;;;;;5025025;28;20053;-45
2022/07/12 12:17:54;;;;;;;1.52;0.80;;;30.80;67.60;;;;;;5025045;28;20089;-44
2022/07/12 12:20:22;;;;;;;3.78;0.80;;;30.80;68.10;;;;;;5023220;28;20529;-44
2022/07/12 12:22:49;;;;;;;1.38;0.68;;;30.80;67.40;;;;;;5022308;28;20581;-44
2022/07/12 12:25:16;;;;;;;4.65;0.70;;;30.90;68.50;;;;;;5023723;28;20148;-45
2022/07/12 12:27:44;;;;;;;1.63;0.60;;;30.90;67.20;;;;;;5051767;28;20062;-44
2022/07/12 12:30:11;;;;;;;1.02;0.70;;;30.90;67.40;;;;;;5022884;28;20041;-43
2022/07/12 12:32:49;;;;;;;0.90;0.63;;;31.00;67.40;;;;;;5029358;28;20669;-44
2022/07/12 12:35:18;;;;;;;1.73;0.68;;;31.10;67.10;;;;;;5024063;28;20052;-43
2022/07/12 12:37:55;;;;;;;0.95;0.60;;;31.20;66.60;;;;;;5026571;28;20077;-43
2022/07/12 12:40:24;;;;;;;1.27;0.85;;;31.40;67.00;;;;;;5030825;28;20056;-44
2022/07/12 12:42:51;;;;;;;4.00;0.80;;;31.50;65.80;;;;;;5030174;28;20062;-44
2022/07/12 12:45:21;;;;;;;3.13;0.88;;;31.50;65.50;;;;;;5043173;28;20203;-44
2022/07/12 12:47:55;;;;;;;;;;;31.50;64.60;;;;;;5023676;28;20095;-44
2022/07/12 12:50:43;;;;;;;0.90;0.40;;;31.50;67.60;;;;;;5022559;28;19956;-44
2022/07/12 12:53:14;;;;;;;1.25;0.50;;;31.50;61.30;;;;;;5028646;28;20149;-44
2022/07/12 12:55:41;;;;;;;1.27;0.50;;;31.50;61.90;;;;;;5023642;28;20077;-44
2022/07/12 12:58:08;;;;;;;2.03;0.50;;;31.70;62.20;;;;;;5024687;28;20085;-44
2022/07/12 13:00:37;;;;;;;1.02;0.60;;;31.80;61.70;;;;;;5030372;28;20099;-43
2022/07/12 13:03:04;;;;;;;3.60;0.80;;;31.90;61.00;;;;;;5030603;28;20053;-43